createdAt,value
2023-04-01T00:00:36.012Z,4.50
2023-04-01T00:03:03.971Z,4.87
2023-04-01T00:05:32.309Z,4.10
2023-04-01T00:08:01.697Z,4.53
2023-04-01T00:10:29.669Z,4.50
2023-04-01T00:12:58.932Z,4.13
2023-04-01T00:15:27.024Z,4.37
2023-04-01T00:17:55.276Z,4.23
2023-04-01T00:20:23.951Z,4.30
2023-04-01T00:22:51.987Z,4.00
2023-04-01T00:25:20.383Z,4.00
2023-04-01T00:27:48.374Z,4.00
2023-04-01T00:30:18.297Z,4.40
2023-04-01T00:32:46.811Z,4.13
2023-04-01T00:35:14.814Z,3.90
2023-04-01T00:37:42.952Z,3.67
2023-04-01T00:40:24.886Z,3.77
2023-04-01T00:42:52.774Z,3.50
2023-04-01T00:45:32.996Z,3.67
2023-04-01T00:48:04.287Z,3.87
2023-04-01T00:50:33.218Z,3.73
2023-04-01T00:53:02.557Z,3.90
2023-04-01T00:55:31.927Z,4.73
2023-04-01T00:58:00.880Z,3.90
2023-04-01T01:00:32.627Z,3.90
2023-04-01T01:03:00.764Z,4.20
2023-04-01T01:05:48.807Z,4.10
2023-04-01T01:08:23.645Z,3.87
2023-04-01T01:10:52.019Z,3.87
2023-04-01T01:13:23.731Z,3.87
2023-04-01T01:15:57.051Z,4.10
2023-04-01T01:18:29.411Z,4.23
2023-04-01T01:21:23.206Z,4.07
2023-04-01T01:24:04.082Z,4.20
2023-04-01T01:26:49.136Z,4.00
2023-04-01T01:29:31.781Z,4.40
2023-04-01T01:32:05.698Z,4.53
2023-04-01T01:34:37.148Z,4.17
2023-04-01T01:37:10.273Z,4.60
2023-04-01T01:39:39.780Z,4.87
2023-04-01T01:42:11.538Z,4.40
2023-04-01T01:44:42.811Z,4.23
2023-04-01T01:47:11.435Z,3.90
2023-04-01T01:49:41.421Z,3.90
2023-04-01T01:52:11.006Z,3.90
2023-04-01T01:54:38.897Z,4.10
2023-04-01T01:57:09.332Z,3.70
2023-04-01T01:59:44.760Z,3.80
2023-04-01T02:02:18.714Z,3.83
2023-04-01T02:04:47.571Z,4.00
2023-04-01T02:07:21.816Z,3.70
2023-04-01T02:09:51.416Z,3.93
2023-04-01T02:12:21.489Z,4.00
2023-04-01T02:14:53.694Z,4.10
2023-04-01T02:17:25.033Z,4.23
2023-04-01T02:19:56.252Z,3.97
2023-04-01T02:22:30.376Z,3.67
2023-04-01T02:25:01.178Z,4.03
2023-04-01T02:27:29.241Z,4.10
2023-04-01T02:29:57.266Z,3.90
2023-04-01T02:32:25.646Z,3.93
2023-04-01T02:34:54.085Z,3.50
2023-04-01T02:37:22.176Z,3.30
2023-04-01T02:39:51.425Z,3.43
2023-04-01T02:42:19.305Z,3.27
2023-04-01T02:44:47.652Z,3.23
2023-04-01T02:47:15.769Z,3.27
2023-04-01T02:49:43.802Z,3.10
2023-04-01T02:52:11.687Z,3.40
2023-04-01T02:54:41.369Z,3.17
2023-04-01T02:57:10.786Z,3.10
2023-04-01T02:59:38.786Z,3.20
2023-04-01T03:02:07.767Z,3.80
2023-04-01T03:04:35.772Z,3.60
2023-04-01T03:07:03.707Z,3.67
2023-04-01T03:09:32.605Z,3.90
2023-04-01T03:12:00.595Z,4.00
2023-04-01T03:14:31.232Z,4.37
2023-04-01T03:16:59.175Z,3.93
2023-04-01T03:19:27.923Z,4.60
2023-04-01T03:21:56.057Z,4.40
2023-04-01T03:24:23.972Z,4.20
2023-04-01T03:26:51.873Z,4.00
2023-04-01T03:29:20.434Z,4.30
2023-04-01T03:31:49.748Z,4.13
2023-04-01T03:34:17.564Z,3.67
2023-04-01T03:36:45.492Z,4.07
2023-04-01T03:39:14.081Z,4.40
2023-04-01T03:41:43.233Z,5.00
2023-04-01T03:44:11.096Z,4.30
2023-04-01T03:46:39.148Z,4.00
2023-04-01T03:49:12.703Z,4.10
2023-04-01T03:51:41.469Z,3.87
2023-04-01T03:54:10.169Z,3.60
2023-04-01T03:56:38.751Z,3.60
2023-04-01T03:59:09.924Z,3.50
2023-04-01T04:01:37.946Z,3.40
2023-04-01T04:04:06.548Z,3.97
2023-04-01T04:06:36.093Z,3.53
2023-04-01T04:09:04.114Z,3.70
2023-04-01T04:11:33.125Z,3.60
2023-04-01T04:14:01.214Z,3.27
2023-04-01T04:16:29.290Z,3.33
2023-04-01T04:19:00.951Z,3.83
2023-04-01T04:21:28.976Z,3.77
2023-04-01T04:23:58.422Z,3.90
2023-04-01T04:26:26.645Z,3.30
2023-04-01T04:29:01.318Z,4.10
2023-04-01T04:31:29.669Z,4.00
2023-04-01T04:34:01.436Z,4.40
2023-04-01T04:36:29.440Z,4.20
2023-04-01T04:38:59.079Z,4.20
2023-04-01T04:41:27.096Z,4.27
2023-04-01T04:43:56.718Z,4.00
2023-04-01T04:46:27.136Z,4.30
2023-04-01T04:49:01.686Z,5.47
2023-04-01T04:51:29.641Z,4.47
2023-04-01T04:53:58.890Z,4.33
2023-04-01T04:56:38.825Z,4.60
2023-04-01T04:59:09.267Z,4.53
2023-04-01T05:01:44.949Z,4.70
2023-04-01T05:04:12.956Z,4.50
2023-04-01T05:06:43.146Z,4.00
2023-04-01T05:09:12.526Z,4.87
2023-04-01T05:11:41.502Z,4.70
2023-04-01T05:14:14.454Z,4.10
2023-04-01T05:16:43.721Z,4.50
2023-04-01T05:19:11.671Z,10.13
2023-04-01T05:21:39.534Z,5.97
2023-04-01T05:24:09.799Z,5.40
2023-04-01T05:26:39.676Z,5.47
2023-04-01T05:29:07.545Z,5.57
2023-04-01T05:31:35.542Z,6.30
2023-04-01T05:34:04.852Z,14.27
2023-04-01T05:36:32.824Z,5.90
2023-04-01T05:39:00.810Z,13.37
2023-04-01T05:41:29.670Z,4.53
2023-04-01T05:43:59.032Z,12.27
2023-04-01T05:46:41.827Z,7.23
2023-04-01T05:49:19.033Z,4.53
2023-04-01T05:51:47.175Z,5.17
2023-04-01T05:54:15.105Z,15.13
2023-04-01T05:56:46.388Z,4.97
2023-04-01T05:59:17.163Z,11.97
2023-04-01T06:01:45.351Z,5.67
2023-04-01T06:04:16.341Z,7.20
2023-04-01T06:06:44.762Z,5.13
2023-04-01T06:09:17.239Z,6.53
2023-04-01T06:12:17.048Z,5.03
2023-04-01T06:15:03.621Z,6.03
2023-04-01T06:17:43.801Z,12.40
2023-04-01T06:20:21.653Z,7.13
2023-04-01T06:23:04.801Z,5.43
2023-04-01T06:25:41.708Z,4.80
2023-04-01T06:28:46.165Z,4.60
2023-04-01T06:31:27.232Z,5.27
2023-04-01T06:34:07.493Z,5.23
2023-04-01T06:36:47.437Z,5.47
2023-04-01T06:39:23.148Z,5.20
2023-04-01T06:42:33.240Z,6.50
2023-04-01T06:45:16.668Z,6.63
2023-04-01T06:48:43.200Z,6.07
2023-04-01T06:51:35.093Z,6.93
2023-04-01T06:54:24.247Z,6.83
2023-04-01T06:57:07.764Z,7.43
2023-04-01T06:59:37.292Z,7.10
2023-04-01T07:02:08.719Z,7.20
2023-04-01T07:04:40.081Z,7.00
2023-04-01T07:07:27.718Z,7.07
2023-04-01T07:10:02.184Z,6.43
2023-04-01T07:12:42.360Z,6.80
2023-04-01T07:15:42.034Z,6.53
2023-04-01T07:18:14.840Z,6.67
2023-04-01T07:20:44.463Z,8.77
2023-04-01T07:23:17.689Z,6.87
2023-04-01T07:25:58.663Z,7.23
2023-04-01T07:28:29.006Z,8.33
2023-04-01T07:31:11.819Z,8.23
2023-04-01T07:33:41.907Z,6.73
2023-04-01T07:36:17.109Z,6.20
2023-04-01T07:38:54.043Z,6.47
2023-04-01T07:41:47.443Z,8.20
2023-04-01T07:44:19.154Z,7.53
2023-04-01T07:46:55.768Z,8.50
2023-04-01T07:49:30.290Z,6.30
2023-04-01T07:52:02.834Z,7.27
2023-04-01T07:54:41.481Z,7.90
2023-04-01T07:57:14.489Z,7.57
2023-04-01T07:59:53.510Z,7.23
2023-04-01T08:02:33.853Z,7.30
2023-04-01T08:05:09.770Z,7.13
2023-04-01T08:07:44.307Z,6.70
2023-04-01T08:10:52.629Z,6.10
2023-04-01T08:13:45.812Z,6.20
2023-04-01T08:16:44.773Z,5.43
2023-04-01T08:19:23.179Z,4.10
2023-04-01T08:21:56.989Z,4.30
2023-04-01T08:24:44.338Z,4.87
2023-04-01T08:27:20.448Z,7.47
2023-04-01T08:29:53.541Z,6.10
2023-04-01T08:32:25.594Z,7.50
2023-04-01T08:35:10.533Z,7.50
2023-04-01T08:37:42.221Z,8.10
2023-04-01T08:40:29.829Z,8.30
2023-04-01T08:43:09.033Z,8.20
2023-04-01T08:45:56.309Z,9.37
2023-04-01T08:48:42.493Z,9.43
2023-04-01T08:51:44.417Z,10.70
2023-04-01T08:54:32.056Z,10.30
2023-04-01T08:57:06.945Z,10.70
2023-04-01T08:59:49.056Z,10.50
2023-04-01T09:02:53.420Z,9.73
2023-04-01T09:05:39.874Z,9.80
2023-04-01T09:08:18.271Z,9.47
2023-04-01T09:10:57.096Z,9.63
2023-04-01T09:14:02.477Z,9.77
2023-04-01T09:16:42.950Z,8.43
2023-04-01T09:19:22.186Z,9.73
2023-04-01T09:22:24.488Z,10.17
2023-04-01T09:25:31.392Z,9.50
2023-04-01T09:28:07.886Z,9.77
2023-04-01T09:30:57.717Z,10.33
2023-04-01T09:34:11.254Z,11.97
2023-04-01T09:37:09.529Z,11.20
2023-04-01T09:39:39.672Z,14.47
2023-04-01T09:42:46.574Z,12.30
2023-04-01T09:45:50.219Z,13.70
2023-04-01T09:48:32.128Z,11.90
2023-04-01T09:51:08.324Z,12.47
2023-04-01T09:53:52.019Z,12.53
2023-04-01T09:56:30.632Z,12.77
2023-04-01T09:59:43.987Z,12.00
2023-04-01T10:03:26.314Z,9.90
2023-04-01T10:06:40.850Z,10.80
2023-04-01T10:09:44.318Z,11.30
2023-04-01T10:12:46.525Z,11.57
2023-04-01T10:15:35.789Z,11.93
2023-04-01T10:18:44.223Z,12.47
2023-04-01T10:21:24.878Z,13.93
2023-04-01T10:24:06.004Z,12.37
2023-04-01T10:26:55.707Z,11.20
2023-04-01T10:30:17.399Z,9.57
2023-04-01T10:33:16.751Z,9.87
2023-04-01T10:36:12.826Z,8.70
2023-04-01T10:39:10.136Z,9.97
2023-04-01T10:42:10.863Z,9.20
2023-04-01T10:45:26.968Z,9.10
2023-04-01T10:48:15.113Z,8.03
2023-04-01T10:51:11.144Z,7.53
2023-04-01T10:54:12.380Z,8.10
2023-04-01T10:56:58.313Z,6.20
2023-04-01T11:00:04.959Z,6.83
2023-04-01T11:03:36.596Z,6.90
2023-04-01T11:06:52.682Z,4.70
2023-04-01T11:09:57.809Z,4.30
2023-04-01T11:13:01.491Z,4.27
2023-04-01T11:15:53.116Z,4.60
2023-04-01T11:18:50.216Z,5.03
2023-04-01T11:21:49.768Z,4.53
2023-04-01T11:24:42.453Z,4.30
2023-04-01T11:27:43.294Z,3.90
2023-04-01T11:30:24.663Z,3.33
2023-04-01T11:32:56.449Z,9.27
2023-04-01T11:35:36.914Z,5.33
2023-04-01T11:38:17.379Z,4.27
2023-04-01T11:40:50.082Z,3.70
2023-04-01T11:43:33.812Z,4.30
2023-04-01T11:46:21.597Z,4.10
2023-04-01T11:49:02.913Z,3.27
2023-04-01T11:51:54.564Z,3.43
2023-04-01T11:54:34.724Z,3.40
2023-04-01T11:57:15.315Z,4.80
2023-04-01T12:00:08.278Z,4.40
2023-04-01T12:02:50.995Z,4.57
2023-04-01T12:05:29.730Z,4.43
2023-04-01T12:08:05.323Z,4.37
2023-04-01T12:10:40.801Z,4.63
2023-04-01T12:13:17.064Z,4.60
2023-04-01T12:15:58.163Z,4.30
2023-04-01T12:18:31.123Z,4.20
2023-04-01T12:21:04.029Z,4.40
2023-04-01T12:23:48.470Z,4.67
2023-04-01T12:26:32.212Z,4.87
2023-04-01T12:29:21.103Z,5.50
2023-04-01T12:31:54.986Z,5.17
2023-04-01T12:34:44.035Z,5.30
2023-04-01T12:37:15.803Z,5.00
2023-04-01T12:39:58.894Z,5.53
2023-04-01T12:42:45.526Z,5.07
2023-04-01T12:45:30.251Z,5.60
2023-04-01T12:48:30.247Z,5.47
2023-04-01T12:51:11.120Z,5.20
2023-04-01T12:53:49.917Z,5.00
2023-04-01T12:56:24.098Z,4.43
2023-04-01T12:59:23.065Z,5.43
2023-04-01T13:02:11.268Z,5.30
2023-04-01T13:04:58.250Z,5.80
2023-04-01T13:07:38.128Z,5.93
2023-04-01T13:10:13.233Z,6.17
2023-04-01T13:13:09.948Z,6.30
2023-04-01T13:15:39.760Z,6.07
2023-04-01T13:18:19.732Z,6.17
2023-04-01T13:20:55.713Z,6.60
2023-04-01T13:23:35.525Z,6.60
2023-04-01T13:26:15.277Z,5.80
2023-04-01T13:28:48.187Z,6.27
2023-04-01T13:31:32.223Z,5.50
2023-04-01T13:34:09.573Z,5.60
2023-04-01T13:36:44.151Z,5.20
2023-04-01T13:39:20.370Z,5.37
2023-04-01T13:42:01.876Z,5.10
2023-04-01T13:44:33.257Z,6.00
2023-04-01T13:47:19.187Z,7.90
2023-04-01T13:49:58.863Z,8.73
2023-04-01T13:52:45.057Z,8.67
2023-04-01T13:55:24.714Z,7.90
2023-04-01T13:58:04.589Z,6.70
2023-04-01T14:00:42.477Z,7.50
2023-04-01T14:03:39.981Z,8.37
2023-04-01T14:06:14.663Z,8.10
2023-04-01T14:09:05.810Z,8.83
2023-04-01T14:11:39.822Z,8.37
2023-04-01T14:14:17.804Z,7.33
2023-04-01T14:17:05.052Z,6.90
2023-04-01T14:19:49.597Z,7.43
2023-04-01T14:22:27.704Z,7.43
2023-04-01T14:25:13.134Z,6.00
2023-04-01T14:27:53.180Z,7.13
2023-04-01T14:30:46.077Z,6.70
2023-04-01T14:33:23.411Z,7.30
2023-04-01T14:35:58.944Z,6.50
2023-04-01T14:38:31.043Z,6.53
2023-04-01T14:41:08.340Z,6.63
2023-04-01T14:44:01.527Z,6.53
2023-04-01T14:46:40.416Z,6.83
2023-04-01T14:49:17.781Z,7.20
2023-04-01T14:51:46.219Z,7.33
2023-04-01T14:54:23.441Z,6.13
2023-04-01T14:57:03.546Z,5.87
2023-04-01T14:59:31.939Z,5.60
2023-04-01T15:02:03.997Z,5.97
2023-04-01T15:04:44.212Z,6.70
2023-04-01T15:07:49.688Z,6.00
2023-04-01T15:10:33.678Z,6.20
2023-04-01T15:13:10.150Z,6.20
2023-04-01T15:15:48.181Z,6.33
2023-04-01T15:18:21.230Z,6.27
2023-04-01T15:21:19.468Z,6.10
2023-04-01T15:23:58.536Z,5.80
2023-04-01T15:26:38.996Z,4.60
2023-04-01T15:29:27.975Z,6.80
2023-04-01T15:31:59.104Z,7.30
2023-04-01T15:34:34.906Z,6.83
2023-04-01T15:37:06.802Z,6.30
2023-04-01T15:39:47.528Z,5.60
2023-04-01T15:42:29.968Z,6.17
2023-04-01T15:45:09.953Z,5.03
2023-04-01T15:47:42.214Z,3.87
2023-04-01T15:50:31.247Z,4.90
2023-04-01T15:53:11.691Z,4.60
2023-04-01T15:55:41.724Z,4.40
2023-04-01T15:58:26.386Z,4.43
2023-04-01T16:00:59.367Z,4.93
2023-04-01T16:03:37.682Z,5.50
2023-04-01T16:06:20.867Z,5.53
2023-04-01T16:09:12.872Z,5.03
2023-04-01T16:11:47.504Z,6.03
2023-04-01T16:14:27.010Z,5.87
2023-04-01T16:17:04.805Z,5.37
2023-04-01T16:19:40.089Z,5.80
2023-04-01T16:22:11.176Z,5.40
2023-04-01T16:24:44.190Z,5.30
2023-04-01T16:27:16.366Z,6.40
2023-04-01T16:29:48.950Z,7.20
2023-04-01T16:32:24.711Z,6.00
2023-04-01T16:35:00.500Z,5.40
2023-04-01T16:37:35.300Z,5.27
2023-04-01T16:40:15.141Z,5.07
2023-04-01T16:42:46.717Z,5.73
2023-04-01T16:45:25.057Z,5.67
2023-04-01T16:47:56.666Z,5.67
2023-04-01T16:50:26.298Z,6.50
2023-04-01T16:53:01.023Z,5.40
2023-04-01T16:55:48.853Z,5.03
2023-04-01T16:58:21.171Z,4.90
2023-04-01T17:00:52.955Z,4.53
2023-04-01T17:03:28.886Z,4.20
2023-04-01T17:06:09.542Z,5.43
2023-04-01T17:08:46.890Z,5.07
2023-04-01T17:11:19.801Z,5.20
2023-04-01T17:13:49.748Z,4.67
2023-04-01T17:16:32.277Z,5.27
2023-04-01T17:19:08.362Z,4.90
2023-04-01T17:21:50.480Z,6.03
2023-04-01T17:24:39.955Z,6.83
2023-04-01T17:27:20.196Z,5.10
2023-04-01T17:30:03.492Z,6.43
2023-04-01T17:32:43.697Z,5.23
2023-04-01T17:35:15.452Z,5.03
2023-04-01T17:37:48.373Z,4.90
2023-04-01T17:40:37.264Z,5.93
2023-04-01T17:43:11.983Z,6.00
2023-04-01T17:45:45.046Z,4.87
2023-04-01T17:48:20.711Z,5.40
2023-04-01T17:51:00.772Z,6.07
2023-04-01T17:53:36.418Z,5.33
2023-04-01T17:56:14.220Z,5.27
2023-04-01T17:58:47.443Z,4.57
2023-04-01T18:01:23.896Z,4.77
2023-04-01T18:04:10.633Z,4.97
2023-04-01T18:06:48.982Z,6.27
2023-04-01T18:09:25.380Z,6.20
2023-04-01T18:12:02.243Z,5.20
2023-04-01T18:15:06.384Z,5.23
2023-04-01T18:17:44.939Z,5.60
2023-04-01T18:20:29.830Z,6.30
2023-04-01T18:23:03.535Z,6.03
2023-04-01T18:25:35.436Z,4.30
2023-04-01T18:28:19.785Z,5.37
2023-04-01T18:30:53.946Z,4.63
2023-04-01T18:33:28.227Z,4.80
2023-04-01T18:36:00.806Z,4.67
2023-04-01T18:38:32.588Z,4.80
2023-04-01T18:41:13.222Z,5.23
2023-04-01T18:43:48.309Z,4.20
2023-04-01T18:46:22.915Z,5.17
2023-04-01T18:48:59.976Z,5.50
2023-04-01T18:51:38.934Z,5.23
2023-04-01T18:54:13.313Z,5.27
2023-04-01T18:56:42.258Z,5.20
2023-04-01T18:59:12.739Z,5.73
2023-04-01T19:01:44.185Z,5.83
2023-04-01T19:04:23.438Z,4.37
2023-04-01T19:06:53.522Z,6.10
2023-04-01T19:09:25.723Z,6.33
2023-04-01T19:12:05.278Z,6.80
2023-04-01T19:14:46.888Z,5.80
2023-04-01T19:17:20.871Z,6.17
2023-04-01T19:19:55.884Z,6.00
2023-04-01T19:22:34.564Z,5.80
2023-04-01T19:25:21.859Z,4.77
2023-04-01T19:27:52.473Z,5.67
2023-04-01T19:30:33.517Z,5.90
2023-04-01T19:33:11.958Z,5.57
2023-04-01T19:35:45.895Z,6.70
2023-04-01T19:38:17.083Z,7.30
2023-04-01T19:40:57.458Z,6.70
2023-04-01T19:43:42.183Z,6.23
2023-04-01T19:46:18.832Z,7.00
2023-04-01T19:48:53.689Z,7.50
2023-04-01T19:51:27.547Z,8.20
2023-04-01T19:54:00.760Z,7.70
2023-04-01T19:56:38.139Z,7.30
2023-04-01T19:59:11.410Z,7.67
2023-04-01T20:01:46.120Z,8.20
2023-04-01T20:04:17.266Z,6.40
2023-04-01T20:06:50.192Z,6.00
2023-04-01T20:09:38.191Z,5.80
2023-04-01T20:12:13.984Z,6.60
2023-04-01T20:14:46.760Z,7.67
2023-04-01T20:17:21.047Z,7.50
2023-04-01T20:19:56.001Z,7.80
2023-04-01T20:22:35.084Z,6.67
2023-04-01T20:25:08.134Z,6.50
2023-04-01T20:27:41.959Z,7.63
2023-04-01T20:30:48.088Z,7.23
2023-04-01T20:33:43.197Z,7.60
2023-04-01T20:36:18.264Z,8.10
2023-04-01T20:39:13.987Z,6.67
2023-04-01T20:41:51.137Z,7.83
2023-04-01T20:44:22.604Z,6.50
2023-04-01T20:46:55.651Z,6.83
2023-04-01T20:49:34.237Z,6.47
2023-04-01T20:52:08.594Z,5.93
2023-04-01T20:54:48.438Z,7.40
2023-04-01T20:57:19.304Z,7.13
2023-04-01T21:00:13.792Z,6.50
2023-04-01T21:02:53.899Z,6.10
2023-04-01T21:05:37.210Z,5.53
2023-04-01T21:08:10.568Z,5.80
2023-04-01T21:10:42.875Z,6.10
2023-04-01T21:13:22.052Z,5.87
2023-04-01T21:16:00.635Z,5.07
2023-04-01T21:18:43.802Z,4.03
2023-04-01T21:21:26.145Z,4.83
2023-04-01T21:24:26.362Z,3.83
2023-04-01T21:27:01.549Z,5.47
2023-04-01T21:29:42.886Z,5.67
2023-04-01T21:32:22.203Z,4.83
2023-04-01T21:34:53.097Z,4.80
2023-04-01T21:37:49.232Z,4.93
2023-04-01T21:40:35.397Z,5.17
2023-04-01T21:43:07.353Z,5.70
2023-04-01T21:45:59.145Z,4.70
2023-04-01T21:48:44.794Z,5.20
2023-04-01T21:51:52.651Z,4.37
2023-04-01T21:54:57.416Z,5.00
2023-04-01T21:58:05.564Z,3.90
2023-04-01T22:00:34.710Z,3.87
2023-04-01T22:03:43.676Z,4.60
2023-04-01T22:06:19.252Z,4.50
2023-04-01T22:08:55.711Z,4.77
2023-04-01T22:11:33.319Z,4.60
2023-04-01T22:14:04.148Z,4.73
2023-04-01T22:16:36.419Z,4.63
2023-04-01T22:19:14.256Z,5.30
2023-04-01T22:21:53.162Z,4.73
2023-04-01T22:24:27.139Z,3.90
2023-04-01T22:27:00.206Z,4.30
2023-04-01T22:29:33.581Z,4.27
2023-04-01T22:32:05.656Z,3.90
2023-04-01T22:34:39.627Z,3.83
2023-04-01T22:37:14.353Z,3.90
2023-04-01T22:40:01.914Z,3.97
2023-04-01T22:42:45.498Z,3.83
2023-04-01T22:45:27.464Z,4.23
2023-04-01T22:48:02.228Z,3.47
2023-04-01T22:50:34.214Z,3.93
2023-04-01T22:53:07.470Z,3.80
2023-04-01T22:55:37.656Z,3.43
2023-04-01T22:58:23.849Z,3.20
2023-04-01T23:00:55.794Z,3.33
2023-04-01T23:03:24.843Z,3.60
2023-04-01T23:05:55.615Z,3.27
2023-04-01T23:08:42.545Z,3.27
2023-04-01T23:11:14.523Z,3.47
2023-04-01T23:13:46.522Z,3.50
2023-04-01T23:16:14.915Z,3.53
2023-04-01T23:18:47.539Z,2.77
2023-04-01T23:21:21.142Z,2.87
2023-04-01T23:23:55.902Z,3.47
2023-04-01T23:26:27.314Z,3.53
2023-04-01T23:28:55.750Z,3.70
2023-04-01T23:31:41.800Z,3.37
2023-04-01T23:34:25.307Z,3.17
2023-04-01T23:36:57.655Z,3.30
2023-04-01T23:39:29.035Z,3.30
2023-04-01T23:41:58.885Z,2.83
2023-04-01T23:44:27.713Z,2.90
2023-04-01T23:46:56.379Z,3.27
2023-04-01T23:49:27.619Z,3.47
2023-04-01T23:51:59.787Z,3.77
2023-04-01T23:54:33.109Z,4.20
2023-04-01T23:57:06.735Z,4.60
2023-04-01T23:59:37.054Z,4.40
